Terminal Aerodrome Forecast
Issued by NWS Greer, SC

Home | Current Version | Previous Version | Text Only | Print | Product List | Glossary On
Versions: 1 2 3 4 5 6 7 8 9 10 11 12 13 14 15 16 17 18 19 20 21 22 23 24 25 26 27 28 29 30 31 32 33 34
000
FTUS42 KGSP 191141
TAFCLT
TAF
KCLT 191141Z 1912/2018 07005KT 3SM -RADZ BR OVC003
     FM191500 10003KT 5SM BR OVC004
     FM192300 12003KT P6SM SCT007 OVC015
     FM200400 14003KT 4SM BR OVC003
     FM201000 18003KT 1/2SM FG OVC002
     FM201300 19004KT 1SM BR OVC003
     FM201600 19006KT P6SM BKN006=

USA.gov is the U.S. government's official web portal to all federal, state and local government web resources and services.